Time;durP1;ratioP1;P1;durP2;ratioP2;P2;SDS_P1;SDS_P2;PMS_P1;PMS_P2;Temp;Humidity;BMP_temperature;BMP_pressure;BME280_temperature;BME280_humidity;BME280_pressure;Samples;Min_cycle;Max_cycle;Signal;HPM_P1;HPM_P2
2021/12/09 00:00:32;;;;;;;0.47;0.47;;;;;;;17.69;58.70;96919.13;3141922;28;20094;-78
2021/12/09 00:02:14;;;;;;;1.15;0.55;;;;;;;17.67;58.76;96917.75;3153942;28;20052;-79
2021/12/09 00:03:46;;;;;;;0.90;0.70;;;;;;;17.64;58.69;96919.84;3137317;28;20052;-78
2021/12/09 00:05:18;;;;;;;0.30;0.30;;;;;;;17.63;58.81;96923.59;3143008;28;20085;-76
2021/12/09 00:06:54;;;;;;;1.25;0.80;;;;;;;17.62;58.68;96916.56;3142593;28;20048;-79
2021/12/09 00:08:27;;;;;;;0.30;0.30;;;;;;;17.61;58.79;96919.50;3146435;28;20106;-77
2021/12/09 00:10:00;;;;;;;0.60;0.50;;;;;;;17.60;58.93;96917.84;3151109;28;20102;-80
2021/12/09 00:11:41;;;;;;;0.60;0.60;;;;;;;17.57;58.77;96912.97;3144954;28;20040;-79
2021/12/09 00:13:13;;;;;;;0.70;0.30;;;;;;;17.58;58.95;96920.00;3140373;28;20105;-78
2021/12/09 00:14:47;;;;;;;0.60;0.50;;;;;;;17.54;58.81;96930.34;3147609;28;20079;-78
2021/12/09 00:16:19;;;;;;;0.50;0.47;;;;;;;17.53;58.89;96935.97;3143345;28;20058;-77
2021/12/09 00:17:52;;;;;;;1.45;0.47;;;;;;;17.52;58.96;96943.16;3145207;28;20518;-78
2021/12/09 00:19:32;;;;;;;0.80;0.50;;;;;;;17.50;58.76;96947.16;3137894;28;20044;-79
2021/12/09 00:21:04;;;;;;;0.45;0.45;;;;;;;17.48;58.85;96957.31;3147661;28;20164;-78
2021/12/09 00:22:36;;;;;;;0.50;0.50;;;;;;;17.46;59.08;96960.19;3145221;28;20094;-79
2021/12/09 00:24:09;;;;;;;0.50;0.40;;;;;;;17.44;58.93;96970.38;3143604;28;20040;-78
2021/12/09 00:25:41;;;;;;;0.30;0.30;;;;;;;17.43;59.06;96976.75;3142080;28;20071;-76
2021/12/09 00:27:13;;;;;;;0.43;0.43;;;;;;;17.42;58.96;96975.94;3147711;28;20475;-79
2021/12/09 00:28:45;;;;;;;1.38;0.30;;;;;;;17.40;58.76;96978.03;3137828;28;20568;-79
2021/12/09 00:30:23;;;;;;;2.00;0.50;;;;;;;17.37;59.03;96981.19;3150939;28;20649;-79
2021/12/09 00:32:04;;;;;;;0.50;0.50;;;;;;;17.38;59.06;96990.03;3145367;28;20049;-76
2021/12/09 00:33:42;;;;;;;0.52;0.35;;;;;;;17.35;59.04;96999.38;3140945;28;20078;-79
2021/12/09 00:35:16;;;;;;;0.75;0.40;;;;;;;17.34;59.05;97003.09;3146603;28;20229;-80
2021/12/09 00:37:01;;;;;;;0.30;0.30;;;;;;;17.32;59.08;96982.94;3147737;28;20123;-79
2021/12/09 00:38:45;;;;;;;1.08;0.47;;;;;;;17.30;59.10;96995.75;3143756;28;20044;-78
2021/12/09 00:40:17;;;;;;;0.40;0.40;;;;;;;17.27;59.09;96985.53;3148964;28;20108;-78
2021/12/09 00:41:48;;;;;;;1.15;0.40;;;;;;;17.27;59.07;96993.56;3146480;28;20079;-80
2021/12/09 00:43:27;;;;;;;0.20;0.20;;;;;;;17.26;59.14;96994.63;3146275;28;20383;-77
2021/12/09 00:44:59;;;;;;;0.93;0.50;;;;;;;17.24;59.24;96997.50;3145677;28;20041;-79
2021/12/09 00:46:31;;;;;;;0.90;0.50;;;;;;;17.23;59.26;96998.56;3142533;28;20150;-77
2021/12/09 00:48:03;;;;;;;0.45;0.40;;;;;;;17.23;59.10;96989.72;3144065;28;20052;-77
2021/12/09 00:49:40;;;;;;;0.55;0.55;;;;;;;17.20;59.20;96982.97;3142208;28;20499;-78
2021/12/09 00:51:13;;;;;;;0.40;0.40;;;;;;;17.19;59.15;96968.78;3144825;28;20072;-78
2021/12/09 00:52:45;;;;;;;1.00;0.63;;;;;;;17.18;59.12;96964.44;3145856;28;20055;-78
2021/12/09 00:54:23;;;;;;;0.30;0.30;;;;;;;17.18;59.08;96959.09;3132510;28;20044;-78
2021/12/09 00:56:00;;;;;;;0.55;0.43;;;;;;;17.17;59.08;96951.28;3153581;28;20051;-79
2021/12/09 00:57:32;;;;;;;1.17;0.50;;;;;;;17.14;59.05;96957.94;3142296;28;20563;-78
2021/12/09 00:59:04;;;;;;;0.40;0.25;;;;;;;17.12;59.17;96954.66;3143979;28;20420;-79
2021/12/09 01:00:36;;;;;;;0.70;0.50;;;;;;;17.11;59.16;96958.41;3146508;28;20538;-79
2021/12/09 01:02:09;;;;;;;0.50;0.32;;;;;;;17.10;59.32;96948.72;3147850;28;20051;-79
2021/12/09 01:03:42;;;;;;;0.65;0.52;;;;;;;17.10;59.14;96953.28;3145857;28;20036;-78
2021/12/09 01:05:16;;;;;;;0.68;0.43;;;;;;;17.07;59.22;96949.19;3142938;28;20356;-77
2021/12/09 01:06:49;;;;;;;1.02;0.45;;;;;;;17.06;59.25;96950.25;3142884;28;20040;-77
2021/12/09 01:08:21;;;;;;;0.70;0.65;;;;;;;17.05;59.37;96948.63;3139682;28;20613;-79
2021/12/09 01:09:53;;;;;;;0.40;0.40;;;;;;;17.05;59.21;96954.00;3148072;28;20105;-77
2021/12/09 01:11:36;;;;;;;0.65;0.40;;;;;;;17.03;59.03;96956.09;3141766;28;20037;-79
2021/12/09 01:13:10;;;;;;;0.50;0.50;;;;;;;17.02;59.29;96959.81;3144565;28;20052;-78
2021/12/09 01:14:42;;;;;;;0.47;0.47;;;;;;;16.97;59.25;96955.16;3143064;28;20052;-77
2021/12/09 01:16:14;;;;;;;0.40;0.40;;;;;;;16.97;59.40;96957.03;3144666;28;20101;-78
2021/12/09 01:17:53;;;;;;;0.30;0.30;;;;;;;16.96;59.39;96966.09;3144525;28;20044;-79
2021/12/09 01:19:26;;;;;;;0.50;0.35;;;;;;;16.95;59.31;96965.28;3140289;28;20046;-77
2021/12/09 01:20:59;;;;;;;0.47;0.40;;;;;;;16.94;59.18;96970.88;3148922;28;20119;-77
2021/12/09 01:22:36;;;;;;;0.55;0.55;;;;;;;16.93;59.41;96977.28;3144051;28;20485;-78
2021/12/09 01:24:09;;;;;;;0.40;0.40;;;;;;;16.92;59.35;96975.66;3145338;28;20586;-77
2021/12/09 01:25:43;;;;;;;0.50;0.38;;;;;;;16.88;59.32;96961.91;3140895;28;20050;-78
2021/12/09 01:27:15;;;;;;;0.60;0.50;;;;;;;16.88;59.30;96964.59;3142276;28;20492;-79
2021/12/09 01:28:58;;;;;;;0.30;0.30;;;;;;;16.88;59.56;96966.44;3144093;28;20040;-77
2021/12/09 01:30:30;;;;;;;0.50;0.50;;;;;;;16.86;59.39;96965.88;3145172;28;20052;-78
2021/12/09 01:32:05;;;;;;;0.40;0.30;;;;;;;16.84;59.49;96968.78;3141917;28;20045;-79
2021/12/09 01:33:37;;;;;;;0.85;0.85;;;;;;;16.83;59.35;96961.81;3139569;28;20057;-79
2021/12/09 01:35:12;;;;;;;0.88;0.70;;;;;;;16.81;59.48;96957.72;3142731;28;20048;-79
2021/12/09 01:36:47;;;;;;;0.57;0.40;;;;;;;16.80;59.47;96951.56;3138717;28;20041;-79
2021/12/09 01:38:19;;;;;;;0.93;0.30;;;;;;;16.81;59.30;96960.41;3139804;28;20041;-78
2021/12/09 01:39:52;;;;;;;0.77;0.68;;;;;;;16.77;59.38;96957.38;3142714;28;20044;-79
2021/12/09 01:41:24;;;;;;;0.82;0.75;;;;;;;16.77;59.34;96959.22;3141861;28;20409;-78
2021/12/09 01:42:58;;;;;;;0.70;0.38;;;;;;;16.74;59.46;96963.97;3141434;28;20048;-75
2021/12/09 01:44:30;;;;;;;0.38;0.38;;;;;;;16.73;59.42;96965.00;3129523;28;21155;-79
2021/12/09 01:46:10;;;;;;;0.30;0.20;;;;;;;16.74;59.71;96968.50;3146077;28;20101;-79
2021/12/09 01:47:42;;;;;;;0.77;0.38;;;;;;;16.72;59.44;96975.97;3147972;28;20043;-79
2021/12/09 01:49:13;;;;;;;1.00;0.57;;;;;;;16.70;59.76;96973.50;3142246;28;20090;-78
2021/12/09 01:50:45;;;;;;;0.30;0.30;;;;;;;16.69;59.59;96976.44;3146831;28;20657;-78
2021/12/09 01:52:19;;;;;;;0.68;0.60;;;;;;;16.69;59.61;96981.78;3142646;28;20044;-77
2021/12/09 01:53:51;;;;;;;0.50;0.40;;;;;;;16.65;59.54;96984.09;3145404;28;20102;-80
2021/12/09 01:55:23;;;;;;;0.30;0.30;;;;;;;16.64;59.73;96989.69;3136767;28;20048;-78
2021/12/09 01:57:04;;;;;;;0.30;0.30;;;;;;;16.62;59.63;96987.22;3146476;28;20186;-78
2021/12/09 01:58:37;;;;;;;2.72;0.70;;;;;;;16.62;59.55;96981.06;3144577;28;20048;-79
2021/12/09 02:00:13;;;;;;;2.65;0.32;;;;;;;16.60;59.33;96986.63;3142966;28;20055;-79
2021/12/09 02:01:45;;;;;;;0.35;0.30;;;;;;;16.60;59.61;96989.31;3145100;28;20149;-78
2021/12/09 02:03:17;;;;;;;0.40;0.40;;;;;;;16.56;59.64;96984.66;3137461;28;20640;-78
2021/12/09 02:04:49;;;;;;;0.82;0.55;;;;;;;16.56;59.65;96987.34;3154544;28;20102;-79
2021/12/09 02:06:21;;;;;;;1.25;0.95;;;;;;;16.54;59.85;96985.69;3142428;28;20748;-78
2021/12/09 02:07:58;;;;;;;0.63;0.50;;;;;;;16.53;59.71;96989.44;3144490;28;20074;-78
2021/12/09 02:09:29;;;;;;;1.58;0.65;;;;;;;16.51;59.67;96993.38;3144625;28;20084;-78
2021/12/09 02:11:01;;;;;;;;;;;;;;;16.52;59.68;96997.69;3141979;28;20058;-77
2021/12/09 02:12:33;;;;;;;0.25;0.25;;;;;;;16.49;59.78;96996.31;3150826;28;19970;-79
2021/12/09 02:14:16;;;;;;;1.48;0.55;;;;;;;16.49;59.63;96993.63;3141246;28;20108;-76
2021/12/09 02:15:52;;;;;;;1.70;0.30;;;;;;;16.47;59.76;96984.19;3139106;28;20040;-79
2021/12/09 02:17:23;;;;;;;0.65;0.60;;;;;;;16.45;59.69;96963.00;3141010;28;20043;-79
2021/12/09 02:18:56;;;;;;;0.45;0.45;;;;;;;16.44;59.66;96963.25;3146577;28;20491;-79
2021/12/09 02:20:32;;;;;;;0.35;0.35;;;;;;;16.43;59.87;96961.59;3145609;28;21359;-79
2021/12/09 02:22:05;;;;;;;2.60;0.52;;;;;;;16.40;59.88;96960.19;3140855;28;20053;-78
2021/12/09 02:23:38;;;;;;;0.75;0.57;;;;;;;16.39;59.84;96966.59;3140756;28;20380;-79
2021/12/09 02:25:18;;;;;;;0.40;0.40;;;;;;;16.37;59.70;96960.66;3139915;28;20052;-78
2021/12/09 02:26:51;;;;;;;0.50;0.50;;;;;;;16.37;59.80;96957.16;3144816;28;20049;-78
2021/12/09 02:28:23;;;;;;;0.30;0.30;;;;;;;16.36;59.87;96963.56;3141455;28;20048;-77
2021/12/09 02:29:55;;;;;;;;;;;;;;;16.36;59.86;96969.75;3142469;28;20081;-79
2021/12/09 02:31:32;;;;;;;0.50;0.50;;;;;;;16.34;59.74;96962.97;3139443;28;20019;-77
2021/12/09 02:33:04;;;;;;;0.50;0.35;;;;;;;16.31;59.96;96970.41;3144813;28;20059;-78
2021/12/09 02:34:36;;;;;;;0.68;0.40;;;;;;;16.31;59.89;96962.38;3140774;28;20056;-77
2021/12/09 02:36:10;;;;;;;0.30;0.30;;;;;;;16.29;59.89;96964.47;3142034;28;20054;-80
2021/12/09 02:37:44;;;;;;;0.80;0.38;;;;;;;16.29;59.87;96963.66;3143530;28;20886;-77
2021/12/09 02:39:15;;;;;;;0.50;0.32;;;;;;;16.27;59.98;96963.09;3145421;28;20533;-77
2021/12/09 02:40:48;;;;;;;0.30;0.30;;;;;;;16.26;60.02;96959.56;3144601;28;20071;-76
2021/12/09 02:42:34;;;;;;;;;;;;;;;;;;;;;
2021/12/09 02:44:08;;;;;;;0.50;0.40;;;;;;;16.23;59.95;96957.38;3143181;28;20180;-79
2021/12/09 02:45:42;;;;;;;0.52;0.40;;;;;;;16.21;59.97;96947.94;3143148;28;20051;-78
2021/12/09 02:47:13;;;;;;;0.45;0.32;;;;;;;16.21;60.02;96943.41;3148758;28;20047;-79
2021/12/09 02:48:46;;;;;;;1.25;0.40;;;;;;;16.20;59.87;96949.78;3146333;28;20506;-78
2021/12/09 02:50:18;;;;;;;1.00;0.40;;;;;;;16.22;59.92;96944.22;3141121;28;20048;-78
2021/12/09 02:51:52;;;;;;;0.80;0.40;;;;;;;16.21;60.06;96946.06;3144409;28;20147;-78
2021/12/09 02:53:33;;;;;;;0.38;0.38;;;;;;;16.20;60.21;96941.78;3144352;28;20126;-76
2021/12/09 02:55:06;;;;;;;0.77;0.70;;;;;;;16.22;60.07;96938.88;3145181;28;20650;-76
2021/12/09 02:56:40;;;;;;;0.35;0.30;;;;;;;16.22;60.00;96938.88;3142583;28;20060;-79
2021/12/09 02:58:12;;;;;;;1.75;0.63;;;;;;;16.22;60.05;96936.22;3139150;28;20044;-79
2021/12/09 02:59:48;;;;;;;0.65;0.40;;;;;;;16.22;60.07;96939.69;3148570;28;20132;-79
2021/12/09 03:01:24;;;;;;;0.80;0.60;;;;;;;16.23;60.07;96940.50;3143633;28;20120;-78
2021/12/09 03:02:57;;;;;;;0.93;0.60;;;;;;;16.21;60.00;96934.56;3147925;28;20040;-76
2021/12/09 03:04:39;;;;;;;0.20;0.20;;;;;;;16.22;59.92;96939.69;3142286;28;20064;-79
2021/12/09 03:06:14;;;;;;;0.40;0.40;;;;;;;16.20;59.96;96936.44;3133718;28;20119;-78
2021/12/09 03:07:48;;;;;;;0.90;0.85;;;;;;;16.20;60.03;96936.44;3154955;28;20604;-77
2021/12/09 03:09:20;;;;;;;0.95;0.60;;;;;;;16.21;60.08;96937.22;3146585;28;20041;-77
2021/12/09 03:11:02;;;;;;;0.98;0.70;;;;;;;16.19;60.01;96932.13;3141021;28;20079;-78
2021/12/09 03:12:38;;;;;;;0.60;0.50;;;;;;;16.20;60.01;96939.09;3142807;28;20151;-78
2021/12/09 03:14:12;;;;;;;0.38;0.30;;;;;;;16.19;60.25;96934.81;3143216;28;20504;-76
2021/12/09 03:15:44;;;;;;;1.95;0.43;;;;;;;16.20;60.02;96932.94;3137040;28;20059;-79
2021/12/09 03:17:16;;;;;;;0.40;0.40;;;;;;;16.18;59.87;96930.47;3154762;28;20078;-77
2021/12/09 03:18:51;;;;;;;0.30;0.30;;;;;;;16.19;60.17;96942.03;3143012;28;20060;-76
2021/12/09 03:20:23;;;;;;;1.02;0.77;;;;;;;16.18;60.11;96933.16;3141373;28;20469;-78
2021/12/09 03:21:57;;;;;;;0.40;0.40;;;;;;;16.18;60.08;96943.84;3141255;28;20059;-79
2021/12/09 03:23:46;;;;;;;0.40;0.40;;;;;;;16.17;60.08;96942.22;3141789;28;20548;-76
2021/12/09 03:25:20;;;;;;;0.50;0.50;;;;;;;16.16;60.02;96945.97;3148052;28;20693;-78
2021/12/09 03:26:55;;;;;;;0.35;0.35;;;;;;;16.15;60.09;96949.66;3142772;28;20074;-77
2021/12/09 03:28:31;;;;;;;0.65;0.50;;;;;;;16.14;60.01;96940.03;3144659;28;20056;-77
2021/12/09 03:30:09;;;;;;;0.43;0.40;;;;;;;16.15;60.06;96943.50;3149536;28;20101;-78
2021/12/09 03:31:44;;;;;;;0.50;0.40;;;;;;;16.13;60.19;96946.44;3147049;28;20080;-77
2021/12/09 03:33:16;;;;;;;0.30;0.30;;;;;;;16.14;60.07;96941.88;3146352;28;20049;-79
2021/12/09 03:35:00;;;;;;;0.40;0.30;;;;;;;16.13;59.99;96950.94;3145988;28;20040;-77
2021/12/09 03:36:31;;;;;;;1.75;0.30;;;;;;;16.13;60.11;96946.44;3135547;28;20063;-78
2021/12/09 03:38:05;;;;;;;0.60;0.60;;;;;;;16.12;60.24;96946.63;3145373;28;20119;-78
2021/12/09 03:39:40;;;;;;;0.40;0.40;;;;;;;16.10;59.98;96944.19;3145564;28;20060;-77
2021/12/09 03:41:17;;;;;;;0.47;0.47;;;;;;;16.10;60.16;96946.84;3145805;28;20056;-78
2021/12/09 03:42:49;;;;;;;0.32;0.30;;;;;;;16.08;60.07;96943.63;3145951;28;20047;-78
2021/12/09 03:44:21;;;;;;;1.17;0.40;;;;;;;16.09;60.08;96947.91;3145448;28;20541;-77
2021/12/09 03:45:55;;;;;;;0.30;0.25;;;;;;;16.08;60.27;96943.63;3144212;28;20065;-80
2021/12/09 03:47:33;;;;;;;0.45;0.40;;;;;;;16.07;60.16;96931.28;3144043;28;20035;-80
2021/12/09 03:49:05;;;;;;;1.40;0.50;;;;;;;16.07;60.09;96933.94;3140872;28;20116;-78
2021/12/09 03:50:39;;;;;;;0.52;0.40;;;;;;;16.06;60.09;96929.66;3134812;28;20048;-79
2021/12/09 03:52:17;;;;;;;0.60;0.60;;;;;;;16.06;60.27;96940.34;3143360;28;20044;-79
2021/12/09 03:53:51;;;;;;;0.80;0.50;;;;;;;16.04;60.13;96937.06;3146511;28;20052;-79
2021/12/09 03:55:24;;;;;;;0.40;0.35;;;;;;;16.04;60.12;96945.09;3137379;28;20127;-76
2021/12/09 03:56:56;;;;;;;0.20;0.20;;;;;;;16.03;60.11;96946.16;3145809;28;20425;-79
2021/12/09 03:58:28;;;;;;;0.43;0.40;;;;;;;16.03;60.14;96948.81;3143680;28;20147;-77
2021/12/09 03:59:59;;;;;;;0.47;0.47;;;;;;;16.01;60.18;96946.38;3148685;28;20074;-79
2021/12/09 04:01:31;;;;;;;;;;;;;;;16.01;60.08;96945.56;3147916;28;20060;-78
2021/12/09 04:03:05;;;;;;;0.50;0.30;;;;;;;16.02;60.15;96952.56;3144911;28;19924;-79
2021/12/09 04:04:40;;;;;;;0.98;0.50;;;;;;;15.99;60.14;96948.47;3129873;28;20044;-79
2021/12/09 04:06:13;;;;;;;0.30;0.30;;;;;;;16.00;60.21;96949.28;3135890;28;20072;-80
2021/12/09 04:07:44;;;;;;;1.15;0.60;;;;;;;16.00;60.21;96951.97;3144692;28;20040;-80
2021/12/09 04:09:18;;;;;;;;;;;;;;;15.99;60.17;96947.63;3145874;28;20080;-78
2021/12/09 04:10:51;;;;;;;0.40;0.40;;;;;;;15.96;60.19;96948.91;3145772;28;19935;-76
2021/12/09 04:12:23;;;;;;;0.77;0.30;;;;;;;15.96;60.13;96948.09;3147797;28;20101;-79
2021/12/09 04:13:58;;;;;;;0.68;0.40;;;;;;;15.96;60.17;96950.75;3143014;28;20123;-77
2021/12/09 04:15:32;;;;;;;0.30;0.30;;;;;;;15.94;60.12;96948.34;3147674;28;20059;-77
2021/12/09 04:17:05;;;;;;;0.30;0.30;;;;;;;15.93;60.17;96949.34;3145965;28;20055;-78
2021/12/09 04:18:39;;;;;;;1.52;0.60;;;;;;;15.94;60.20;96947.53;3135065;28;20048;-78
2021/12/09 04:20:17;;;;;;;0.45;0.30;;;;;;;15.92;60.31;96949.59;3151883;28;20172;-79
2021/12/09 04:21:50;;;;;;;0.55;0.55;;;;;;;15.91;60.06;96954.13;3144174;28;20043;-79
2021/12/09 04:23:25;;;;;;;1.15;0.25;;;;;;;15.90;60.09;96955.16;3140406;28;20083;-79
2021/12/09 04:24:57;;;;;;;0.63;0.40;;;;;;;15.89;60.12;96953.53;3149488;28;20085;-77
2021/12/09 04:26:29;;;;;;;0.30;0.30;;;;;;;15.89;60.25;96944.72;3145254;28;20135;-77
2021/12/09 04:28:01;;;;;;;0.50;0.50;;;;;;;15.89;60.11;96948.19;3146836;28;20085;-78
2021/12/09 04:29:33;;;;;;;0.30;0.30;;;;;;;15.89;60.32;96947.38;3142851;28;20136;-78
2021/12/09 04:32:55;;;;;;;1.10;0.50;;;;;;;15.87;60.17;96958.28;3145109;28;20044;-78
2021/12/09 04:34:26;;;;;;;0.70;0.55;;;;;;;15.89;60.28;96960.75;3143368;28;20044;-78
2021/12/09 04:35:59;;;;;;;1.15;0.50;;;;;;;15.89;60.38;96955.41;3147203;28;20044;-79
2021/12/09 04:37:37;;;;;;;0.43;0.40;;;;;;;15.88;60.44;96959.09;3149149;28;20045;-79
2021/12/09 04:39:10;;;;;;;0.40;0.30;;;;;;;15.87;60.37;96966.31;3143553;28;20044;-79
2021/12/09 04:40:42;;;;;;;1.00;0.45;;;;;;;15.85;60.24;96961.22;3146086;28;20044;-79
2021/12/09 04:42:23;;;;;;;0.22;0.20;;;;;;;15.86;60.22;96951.31;3148685;28;20110;-78
2021/12/09 04:43:55;;;;;;;1.33;0.30;;;;;;;15.86;60.42;96960.16;3145914;28;20062;-77
2021/12/09 04:45:26;;;;;;;0.68;0.50;;;;;;;15.85;60.39;96958.53;3142995;28;20094;-78
2021/12/09 04:47:00;;;;;;;0.68;0.30;;;;;;;15.86;60.33;96962.84;3142095;28;20158;-79
2021/12/09 04:48:32;;;;;;;1.52;0.50;;;;;;;15.84;60.33;96954.22;3145109;28;20060;-77
2021/12/09 04:50:06;;;;;;;0.40;0.40;;;;;;;15.85;60.19;96966.56;3148397;28;20101;-78
2021/12/09 04:51:38;;;;;;;0.57;0.40;;;;;;;15.84;60.33;96964.91;3145535;28;20059;-79
2021/12/09 04:53:11;;;;;;;0.35;0.35;;;;;;;15.84;60.17;96964.09;3150060;28;20139;-79
2021/12/09 04:54:43;;;;;;;0.70;0.30;;;;;;;15.81;60.26;96962.69;3146276;28;20299;-79
2021/12/09 04:56:15;;;;;;;0.38;0.30;;;;;;;15.82;60.38;96969.69;3145771;28;20084;-79
2021/12/09 04:57:48;;;;;;;0.32;0.30;;;;;;;15.81;60.16;96970.72;3149590;28;20059;-78
2021/12/09 04:59:29;;;;;;;1.10;0.47;;;;;;;15.81;60.37;96967.22;3142361;28;20063;-77
2021/12/09 05:01:02;;;;;;;0.77;0.50;;;;;;;15.80;60.19;96969.09;3144649;28;20068;-79
2021/12/09 05:02:48;;;;;;;0.40;0.30;;;;;;;15.79;60.32;96967.44;3143784;28;20128;-79
2021/12/09 05:04:20;;;;;;;0.88;0.70;;;;;;;15.79;60.10;96972.78;3143766;28;20629;-79
2021/12/09 05:05:57;;;;;;;;;;;;;;;15.81;60.17;96964.56;3145726;28;20406;-78
2021/12/09 05:07:29;;;;;;;0.52;0.52;;;;;;;15.82;60.26;96972.34;3149179;28;20290;-78
2021/12/09 05:09:06;;;;;;;;;;;;;;;15.84;60.14;96964.91;3142700;28;20048;-77
2021/12/09 05:10:53;;;;;;;0.38;0.35;;;;;;;15.88;60.45;96976.00;3145379;28;19947;-79
2021/12/09 05:12:29;;;;;;;0.20;0.20;;;;;;;15.97;60.37;96963.13;3144713;28;20047;-77
2021/12/09 05:14:03;;;;;;;0.95;0.32;;;;;;;16.02;60.31;96956.03;3144691;28;20044;-79
2021/12/09 05:15:35;;;;;;;0.20;0.20;;;;;;;16.08;60.04;96949.78;3144132;28;20095;-78
2021/12/09 05:17:07;;;;;;;;;;;;;;;16.15;60.05;96960.38;3145949;28;20546;-80
2021/12/09 05:18:44;;;;;;;0.85;0.30;;;;;;;16.21;60.03;96958.63;3146678;28;19931;-78
2021/12/09 05:20:16;;;;;;;0.20;0.20;;;;;;;16.28;59.94;96960.16;3141608;28;20072;-78
2021/12/09 05:21:48;;;;;;;0.30;0.30;;;;;;;16.34;59.84;96969.13;3146003;28;20461;-77
2021/12/09 05:23:26;;;;;;;0.57;0.43;;;;;;;16.38;59.84;96959.63;3133632;28;20055;-77
2021/12/09 05:24:59;;;;;;;0.98;0.40;;;;;;;16.44;59.66;96961.38;3144681;28;20044;-79
2021/12/09 05:26:41;;;;;;;0.30;0.30;;;;;;;16.51;59.57;96970.09;3143211;28;20148;-79
2021/12/09 05:28:15;;;;;;;0.47;0.40;;;;;;;16.60;59.53;96986.63;3145493;28;20051;-79
2021/12/09 05:30:03;;;;;;;0.30;0.30;;;;;;;16.64;59.28;96979.78;3146500;28;20458;-79
2021/12/09 05:33:24;;;;;;;0.25;0.25;;;;;;;16.77;59.43;96980.63;3142072;28;20036;-79
2021/12/09 05:34:56;;;;;;;0.30;0.30;;;;;;;16.82;58.99;96970.06;3143688;28;20051;-77
2021/12/09 05:36:28;;;;;;;0.20;0.20;;;;;;;16.84;59.38;96967.97;3143036;28;20144;-79
2021/12/09 05:38:00;;;;;;;0.30;0.30;;;;;;;16.88;59.13;96971.78;3140851;28;20555;-78
2021/12/09 05:39:32;;;;;;;0.38;0.30;;;;;;;16.88;59.12;96961.91;3139589;28;20059;-78
2021/12/09 05:41:04;;;;;;;0.43;0.30;;;;;;;16.92;59.15;96962.25;3142019;28;20082;-78
2021/12/09 05:42:36;;;;;;;0.57;0.25;;;;;;;16.96;58.93;96960.72;3146286;28;20075;-77
2021/12/09 05:44:10;;;;;;;0.32;0.32;;;;;;;17.00;59.07;96961.91;3147123;28;20049;-78
2021/12/09 05:45:43;;;;;;;0.57;0.32;;;;;;;17.01;59.06;96958.19;3144944;28;20178;-80
2021/12/09 05:47:18;;;;;;;0.20;0.20;;;;;;;17.05;59.00;96954.00;3142955;28;20131;-78
2021/12/09 05:48:51;;;;;;;0.35;0.22;;;;;;;17.09;59.01;96960.50;3135404;28;20056;-80
2021/12/09 05:50:22;;;;;;;0.40;0.20;;;;;;;17.14;58.84;96965.97;3140069;28;20041;-79
2021/12/09 05:51:54;;;;;;;0.50;0.30;;;;;;;17.17;59.04;96968.19;3145760;28;20132;-77
2021/12/09 05:53:26;;;;;;;0.20;0.20;;;;;;;17.20;58.80;96966.91;3141134;28;20059;-76
2021/12/09 05:54:58;;;;;;;0.52;0.40;;;;;;;17.24;58.73;96962.69;3147387;28;20045;-80
2021/12/09 05:56:30;;;;;;;;;;;;;;;17.27;58.74;96961.41;3147560;28;20550;-79
2021/12/09 05:58:02;;;;;;;0.47;0.20;;;;;;;17.32;58.54;96965.00;3144789;28;19998;-78
2021/12/09 05:59:34;;;;;;;0.32;0.30;;;;;;;17.37;58.45;96972.34;3141921;28;20083;-79
2021/12/09 06:01:07;;;;;;;0.52;0.52;;;;;;;17.39;58.50;96973.75;3136432;28;20426;-77
2021/12/09 06:02:46;;;;;;;0.10;0.10;;;;;;;17.43;58.60;96972.22;3152116;28;20525;-78
2021/12/09 06:04:18;;;;;;;0.10;0.10;;;;;;;17.45;58.39;96980.03;3146314;28;20046;-78
2021/12/09 06:05:51;;;;;;;0.28;0.25;;;;;;;17.50;58.38;96972.09;3147230;28;20044;-77
2021/12/09 06:07:23;;;;;;;0.43;0.43;;;;;;;17.52;58.28;96969.97;3145052;28;20044;-79
2021/12/09 06:08:58;;;;;;;0.30;0.30;;;;;;;17.55;58.41;96971.38;3136362;28;20424;-79
2021/12/09 06:10:30;;;;;;;0.50;0.50;;;;;;;17.56;58.35;96964.97;3141203;28;20756;-80
2021/12/09 06:12:04;;;;;;;0.47;0.40;;;;;;;17.60;58.22;96974.16;3141000;28;20056;-78
2021/12/09 06:13:37;;;;;;;1.08;0.30;;;;;;;17.61;58.34;96967.75;3142873;28;20072;-77
2021/12/09 06:15:10;;;;;;;0.38;0.38;;;;;;;17.61;58.35;96965.88;3146045;28;20048;-78
2021/12/09 06:16:45;;;;;;;0.38;0.20;;;;;;;17.63;58.18;96962.94;3144227;28;20028;-77
2021/12/09 06:18:19;;;;;;;0.38;0.22;;;;;;;17.65;58.25;96966.22;3139468;28;20118;-79
2021/12/09 06:19:58;;;;;;;0.77;0.43;;;;;;;17.63;58.22;96958.44;3139433;28;20047;-79
2021/12/09 06:22:11;;;;;;;0.65;0.45;;;;;;;17.65;58.14;96958.19;3143153;28;20490;-79
2021/12/09 06:23:46;;;;;;;0.70;0.20;;;;;;;17.69;58.31;96959.34;3115852;28;20048;-77
2021/12/09 06:25:19;;;;;;;0.20;0.20;;;;;;;17.69;58.35;96958.50;3143150;22;20037;-46
2021/12/09 06:26:51;;;;;;;0.17;0.17;;;;;;;17.70;58.08;96960.97;3136804;28;20053;-45
2021/12/09 06:28:23;;;;;;;0.28;0.28;;;;;;;17.71;58.38;96967.13;3132825;28;20049;-46
2021/12/09 06:29:54;;;;;;;1.38;0.35;;;;;;;17.68;58.25;96960.38;3135897;28;20147;-47
2021/12/09 06:31:27;;;;;;;0.40;0.40;;;;;;;17.70;58.22;96958.28;3137849;28;20087;-48
2021/12/09 06:33:01;;;;;;;0.20;0.20;;;;;;;17.71;58.16;96962.59;3139073;28;20048;-45
2021/12/09 06:34:33;;;;;;;0.20;0.20;;;;;;;17.71;58.12;96967.94;3133247;28;20049;-45
2021/12/09 06:36:05;;;;;;;0.30;0.30;;;;;;;17.71;58.22;96972.50;3126010;28;20971;-47
2021/12/09 06:37:40;;;;;;;0.15;0.15;;;;;;;17.69;58.26;96971.91;3120397;28;20720;-47
2021/12/09 06:39:12;;;;;;;0.32;0.30;;;;;;;17.69;58.35;96979.97;3122647;28;20067;-46
2021/12/09 06:40:45;;;;;;;0.35;0.30;;;;;;;17.68;58.21;96972.97;3124504;28;20110;-46
2021/12/09 06:42:17;;;;;;;1.67;0.30;;;;;;;17.67;58.17;96972.16;3122711;28;20361;-46
2021/12/09 06:43:49;;;;;;;0.30;0.20;;;;;;;17.67;58.38;96974.03;3125241;28;20056;-47
2021/12/09 06:45:23;;;;;;;0.35;0.25;;;;;;;17.68;58.22;96978.34;3118282;28;20127;-45
2021/12/09 06:46:56;;;;;;;0.20;0.20;;;;;;;17.68;58.46;96972.97;3123024;28;20541;-46
2021/12/09 06:48:29;;;;;;;0.20;0.10;;;;;;;17.70;58.09;96981.59;3122872;28;20061;-46
2021/12/09 06:50:01;;;;;;;0.40;0.22;;;;;;;17.71;58.24;96978.66;3122364;28;20045;-45
2021/12/09 06:51:33;;;;;;;0.32;0.30;;;;;;;17.74;58.15;96988.09;3123796;28;20148;-45
2021/12/09 06:53:05;;;;;;;0.15;0.15;;;;;;;17.74;58.12;96988.09;3119815;28;20381;-46
2021/12/09 06:54:37;;;;;;;0.40;0.20;;;;;;;17.77;57.95;96988.44;3123822;28;20533;-46
2021/12/09 06:56:09;;;;;;;0.43;0.40;;;;;;;17.78;58.12;96983.91;3138178;28;20135;-46
2021/12/09 06:57:42;;;;;;;0.20;0.10;;;;;;;17.81;57.96;96991.50;3135818;28;20040;-47
2021/12/09 06:59:14;;;;;;;0.43;0.30;;;;;;;17.82;57.96;96985.09;3120432;28;20053;-46
2021/12/09 07:00:46;;;;;;;;;;;;;;;17.83;57.89;96992.09;3120740;28;20160;-46
2021/12/09 07:02:18;;;;;;;0.40;0.30;;;;;;;17.83;57.94;96992.09;3103482;28;19924;-46
2021/12/09 07:03:53;;;;;;;0.13;0.13;;;;;;;17.82;57.94;96985.91;3120782;28;20111;-46
2021/12/09 07:05:29;;;;;;;0.70;0.20;;;;;;;17.83;58.06;96987.53;3120628;28;20048;-47
2021/12/09 07:07:01;;;;;;;0.38;0.30;;;;;;;17.85;58.05;96987.28;3125862;28;20068;-47
2021/12/09 07:08:35;;;;;;;0.20;0.20;;;;;;;17.84;58.05;96977.63;3125701;28;20071;-45
2021/12/09 07:10:10;;;;;;;0.57;0.40;;;;;;;17.83;58.08;96976.00;3122174;28;20045;-46
2021/12/09 07:11:44;;;;;;;0.10;0.10;;;;;;;17.83;58.03;96978.69;3124980;28;20112;-45
2021/12/09 07:13:16;;;;;;;0.43;0.40;;;;;;;17.81;58.09;96973.56;3121212;28;20063;-46
2021/12/09 07:14:48;;;;;;;0.15;0.10;;;;;;;17.81;58.09;96976.22;3120722;28;20106;-46
2021/12/09 07:16:20;;;;;;;0.25;0.17;;;;;;;17.80;58.16;96977.28;3119696;28;20141;-45
2021/12/09 07:17:52;;;;;;;0.20;0.20;;;;;;;17.78;57.98;96968.66;3123577;28;20134;-45
2021/12/09 07:19:25;;;;;;;0.30;0.30;;;;;;;17.78;57.99;96983.91;3122778;28;20056;-46
2021/12/09 07:20:57;;;;;;;0.88;0.20;;;;;;;17.78;58.11;96976.72;3126878;28;20263;-45
2021/12/09 07:22:30;;;;;;;0.40;0.32;;;;;;;17.79;58.09;96985.56;3122948;28;20151;-46
2021/12/09 07:24:02;;;;;;;0.20;0.20;;;;;;;17.78;58.03;96983.91;3126247;28;20076;-47
2021/12/09 07:25:35;;;;;;;0.35;0.35;;;;;;;17.78;58.14;96994.63;3124267;28;20069;-45
2021/12/09 07:27:07;;;;;;;0.28;0.28;;;;;;;17.78;57.94;96994.63;3122064;28;20041;-45
2021/12/09 07:28:39;;;;;;;0.10;0.10;;;;;;;17.78;58.14;97005.38;3121581;28;20041;-46